sensor_id;sensor_type;location;lat;lon;timestamp;P1;durP1;ratioP1;P2;durP2;ratioP2
32864;SDS011;19219;44.500;11.188;2023-03-14T00:02:06;23.48;;;15.80;;
32864;SDS011;19219;44.500;11.188;2023-03-14T00:04:32;29.17;;;16.23;;
32864;SDS011;19219;44.500;11.188;2023-03-14T00:06:57;25.25;;;16.05;;
32864;SDS011;19219;44.500;11.188;2023-03-14T00:09:23;27.08;;;17.40;;
32864;SDS011;19219;44.500;11.188;2023-03-14T00:11:49;37.65;;;22.88;;
32864;SDS011;19219;44.500;11.188;2023-03-14T00:14:14;35.03;;;18.13;;
32864;SDS011;19219;44.500;11.188;2023-03-14T00:16:41;34.78;;;19.17;;
32864;SDS011;19219;44.500;11.188;2023-03-14T00:19:10;30.23;;;18.42;;
32864;SDS011;19219;44.500;11.188;2023-03-14T00:21:36;29.80;;;17.83;;
32864;SDS011;19219;44.500;11.188;2023-03-14T00:24:01;26.40;;;17.30;;
32864;SDS011;19219;44.500;11.188;2023-03-14T00:26:27;29.02;;;17.67;;
32864;SDS011;19219;44.500;11.188;2023-03-14T00:28:53;31.58;;;18.40;;
32864;SDS011;19219;44.500;11.188;2023-03-14T00:31:19;33.13;;;17.92;;
32864;SDS011;19219;44.500;11.188;2023-03-14T00:33:46;30.98;;;19.27;;
32864;SDS011;19219;44.500;11.188;2023-03-14T00:36:13;32.22;;;19.88;;
32864;SDS011;19219;44.500;11.188;2023-03-14T00:38:41;26.40;;;18.35;;
32864;SDS011;19219;44.500;11.188;2023-03-14T00:41:12;29.15;;;18.45;;
32864;SDS011;19219;44.500;11.188;2023-03-14T00:43:40;30.85;;;18.98;;
32864;SDS011;19219;44.500;11.188;2023-03-14T00:46:06;33.28;;;19.90;;
32864;SDS011;19219;44.500;11.188;2023-03-14T00:48:32;32.22;;;19.17;;
32864;SDS011;19219;44.500;11.188;2023-03-14T00:50:59;29.50;;;18.50;;
32864;SDS011;19219;44.500;11.188;2023-03-14T00:53:24;33.58;;;19.05;;
32864;SDS011;19219;44.500;11.188;2023-03-14T00:55:50;32.45;;;20.67;;
32864;SDS011;19219;44.500;11.188;2023-03-14T00:58:16;30.48;;;19.08;;
32864;SDS011;19219;44.500;11.188;2023-03-14T01:00:43;30.25;;;18.38;;
32864;SDS011;19219;44.500;11.188;2023-03-14T01:03:10;29.63;;;19.30;;
32864;SDS011;19219;44.500;11.188;2023-03-14T01:05:37;45.65;;;26.95;;
32864;SDS011;19219;44.500;11.188;2023-03-14T01:08:04;47.05;;;24.73;;
32864;SDS011;19219;44.500;11.188;2023-03-14T01:10:30;38.35;;;22.48;;
32864;SDS011;19219;44.500;11.188;2023-03-14T01:12:56;37.22;;;22.77;;
32864;SDS011;19219;44.500;11.188;2023-03-14T01:15:21;47.60;;;26.98;;
32864;SDS011;19219;44.500;11.188;2023-03-14T01:17:47;52.03;;;27.55;;
32864;SDS011;19219;44.500;11.188;2023-03-14T01:20:13;39.67;;;22.42;;
32864;SDS011;19219;44.500;11.188;2023-03-14T01:22:40;29.73;;;17.27;;
32864;SDS011;19219;44.500;11.188;2023-03-14T01:25:07;21.88;;;13.75;;
32864;SDS011;19219;44.500;11.188;2023-03-14T01:27:37;17.27;;;9.57;;
32864;SDS011;19219;44.500;11.188;2023-03-14T01:30:03;11.70;;;3.35;;
32864;SDS011;19219;44.500;11.188;2023-03-14T01:32:29;6.05;;;2.22;;
32864;SDS011;19219;44.500;11.188;2023-03-14T01:34:55;12.57;;;2.83;;
32864;SDS011;19219;44.500;11.188;2023-03-14T01:37:21;5.38;;;2.17;;
32864;SDS011;19219;44.500;11.188;2023-03-14T01:39:47;8.93;;;2.63;;
32864;SDS011;19219;44.500;11.188;2023-03-14T01:42:13;6.80;;;2.30;;
32864;SDS011;19219;44.500;11.188;2023-03-14T01:44:49;5.97;;;1.92;;
32864;SDS011;19219;44.500;11.188;2023-03-14T01:47:20;6.68;;;2.30;;
32864;SDS011;19219;44.500;11.188;2023-03-14T01:49:46;6.63;;;1.88;;
32864;SDS011;19219;44.500;11.188;2023-03-14T01:52:38;4.13;;;1.70;;
32864;SDS011;19219;44.500;11.188;2023-03-14T01:55:07;10.30;;;2.50;;
32864;SDS011;19219;44.500;11.188;2023-03-14T01:57:44;5.70;;;2.17;;
32864;SDS011;19219;44.500;11.188;2023-03-14T02:00:17;8.63;;;1.98;;
32864;SDS011;19219;44.500;11.188;2023-03-14T02:02:46;6.32;;;1.85;;
32864;SDS011;19219;44.500;11.188;2023-03-14T02:05:16;3.60;;;1.80;;
32864;SDS011;19219;44.500;11.188;2023-03-14T02:07:52;6.63;;;1.80;;
32864;SDS011;19219;44.500;11.188;2023-03-14T02:10:19;4.40;;;1.75;;
32864;SDS011;19219;44.500;11.188;2023-03-14T02:12:49;5.82;;;2.00;;
32864;SDS011;19219;44.500;11.188;2023-03-14T02:15:17;7.97;;;1.70;;
32864;SDS011;19219;44.500;11.188;2023-03-14T02:17:43;4.22;;;1.35;;
32864;SDS011;19219;44.500;11.188;2023-03-14T02:23:03;4.03;;;2.17;;
32864;SDS011;19219;44.500;11.188;2023-03-14T02:25:35;5.97;;;1.60;;
32864;SDS011;19219;44.500;11.188;2023-03-14T02:28:26;3.42;;;1.90;;
32864;SDS011;19219;44.500;11.188;2023-03-14T02:30:52;6.28;;;2.13;;
32864;SDS011;19219;44.500;11.188;2023-03-14T02:33:18;4.32;;;1.40;;
32864;SDS011;19219;44.500;11.188;2023-03-14T02:35:46;7.00;;;1.90;;
32864;SDS011;19219;44.500;11.188;2023-03-14T02:41:04;5.82;;;1.67;;
32864;SDS011;19219;44.500;11.188;2023-03-14T02:43:32;3.25;;;1.50;;
32864;SDS011;19219;44.500;11.188;2023-03-14T02:46:00;8.07;;;2.05;;
32864;SDS011;19219;44.500;11.188;2023-03-14T02:48:33;6.88;;;1.77;;
32864;SDS011;19219;44.500;11.188;2023-03-14T02:51:12;7.55;;;1.70;;
32864;SDS011;19219;44.500;11.188;2023-03-14T02:53:39;6.20;;;1.80;;
32864;SDS011;19219;44.500;11.188;2023-03-14T02:56:06;7.13;;;2.15;;
32864;SDS011;19219;44.500;11.188;2023-03-14T02:58:33;13.55;;;2.63;;
32864;SDS011;19219;44.500;11.188;2023-03-14T03:00:59;3.75;;;1.73;;
32864;SDS011;19219;44.500;11.188;2023-03-14T03:03:24;6.90;;;2.15;;
32864;SDS011;19219;44.500;11.188;2023-03-14T03:05:50;4.72;;;1.67;;
32864;SDS011;19219;44.500;11.188;2023-03-14T03:08:18;7.22;;;1.40;;
32864;SDS011;19219;44.500;11.188;2023-03-14T03:10:45;7.97;;;2.15;;
32864;SDS011;19219;44.500;11.188;2023-03-14T03:13:10;9.00;;;1.83;;
32864;SDS011;19219;44.500;11.188;2023-03-14T03:15:36;6.28;;;1.50;;
32864;SDS011;19219;44.500;11.188;2023-03-14T03:18:02;4.85;;;1.38;;
32864;SDS011;19219;44.500;11.188;2023-03-14T03:20:28;4.20;;;1.83;;
32864;SDS011;19219;44.500;11.188;2023-03-14T03:22:53;5.82;;;1.45;;
32864;SDS011;19219;44.500;11.188;2023-03-14T03:25:19;5.65;;;1.30;;
32864;SDS011;19219;44.500;11.188;2023-03-14T03:27:45;6.65;;;2.05;;
32864;SDS011;19219;44.500;11.188;2023-03-14T03:30:10;3.20;;;1.45;;
32864;SDS011;19219;44.500;11.188;2023-03-14T03:32:36;4.15;;;1.50;;
32864;SDS011;19219;44.500;11.188;2023-03-14T03:35:03;5.15;;;1.33;;
32864;SDS011;19219;44.500;11.188;2023-03-14T03:37:30;5.35;;;2.25;;
32864;SDS011;19219;44.500;11.188;2023-03-14T03:39:56;4.30;;;1.95;;
32864;SDS011;19219;44.500;11.188;2023-03-14T03:42:22;4.70;;;1.35;;
32864;SDS011;19219;44.500;11.188;2023-03-14T03:44:48;4.07;;;1.63;;
32864;SDS011;19219;44.500;11.188;2023-03-14T03:47:14;5.00;;;1.90;;
32864;SDS011;19219;44.500;11.188;2023-03-14T03:49:40;6.30;;;1.92;;
32864;SDS011;19219;44.500;11.188;2023-03-14T03:52:06;3.85;;;1.83;;
32864;SDS011;19219;44.500;11.188;2023-03-14T03:54:32;6.85;;;2.03;;
32864;SDS011;19219;44.500;11.188;2023-03-14T03:56:57;4.75;;;2.28;;
32864;SDS011;19219;44.500;11.188;2023-03-14T03:59:23;2.40;;;1.10;;
32864;SDS011;19219;44.500;11.188;2023-03-14T04:01:49;7.85;;;1.65;;
32864;SDS011;19219;44.500;11.188;2023-03-14T04:04:14;6.28;;;1.33;;
32864;SDS011;19219;44.500;11.188;2023-03-14T04:06:40;6.20;;;1.50;;
32864;SDS011;19219;44.500;11.188;2023-03-14T04:09:07;2.35;;;1.48;;
32864;SDS011;19219;44.500;11.188;2023-03-14T04:11:34;10.65;;;1.50;;
32864;SDS011;19219;44.500;11.188;2023-03-14T04:14:00;4.13;;;1.75;;
32864;SDS011;19219;44.500;11.188;2023-03-14T04:16:25;7.07;;;1.98;;
32864;SDS011;19219;44.500;11.188;2023-03-14T04:18:51;7.10;;;1.42;;
32864;SDS011;19219;44.500;11.188;2023-03-14T04:21:17;9.90;;;1.77;;
32864;SDS011;19219;44.500;11.188;2023-03-14T04:23:43;6.72;;;1.58;;
32864;SDS011;19219;44.500;11.188;2023-03-14T04:26:09;6.63;;;1.45;;
32864;SDS011;19219;44.500;11.188;2023-03-14T04:28:35;5.80;;;1.20;;
32864;SDS011;19219;44.500;11.188;2023-03-14T04:31:12;8.65;;;1.42;;
32864;SDS011;19219;44.500;11.188;2023-03-14T04:33:39;6.22;;;1.00;;
32864;SDS011;19219;44.500;11.188;2023-03-14T04:36:06;8.88;;;2.08;;
32864;SDS011;19219;44.500;11.188;2023-03-14T04:38:32;6.50;;;1.50;;
32864;SDS011;19219;44.500;11.188;2023-03-14T04:40:58;7.60;;;1.63;;
32864;SDS011;19219;44.500;11.188;2023-03-14T04:43:24;6.18;;;1.83;;
32864;SDS011;19219;44.500;11.188;2023-03-14T04:45:51;7.13;;;1.60;;
32864;SDS011;19219;44.500;11.188;2023-03-14T04:48:18;6.30;;;1.33;;
32864;SDS011;19219;44.500;11.188;2023-03-14T04:50:44;5.93;;;1.30;;
32864;SDS011;19219;44.500;11.188;2023-03-14T04:53:11;2.38;;;1.17;;
32864;SDS011;19219;44.500;11.188;2023-03-14T04:55:37;2.72;;;1.05;;
32864;SDS011;19219;44.500;11.188;2023-03-14T04:58:02;6.10;;;1.42;;
32864;SDS011;19219;44.500;11.188;2023-03-14T05:00:28;8.63;;;2.10;;
32864;SDS011;19219;44.500;11.188;2023-03-14T05:02:54;3.90;;;1.35;;
32864;SDS011;19219;44.500;11.188;2023-03-14T05:05:20;5.25;;;1.52;;
32864;SDS011;19219;44.500;11.188;2023-03-14T05:07:46;3.88;;;1.30;;
32864;SDS011;19219;44.500;11.188;2023-03-14T05:10:11;6.85;;;1.48;;
32864;SDS011;19219;44.500;11.188;2023-03-14T05:12:37;5.50;;;1.77;;
32864;SDS011;19219;44.500;11.188;2023-03-14T05:15:03;3.90;;;1.40;;
32864;SDS011;19219;44.500;11.188;2023-03-14T05:17:29;3.67;;;1.73;;
32864;SDS011;19219;44.500;11.188;2023-03-14T05:19:57;6.15;;;1.17;;
32864;SDS011;19219;44.500;11.188;2023-03-14T05:22:22;7.53;;;1.52;;
32864;SDS011;19219;44.500;11.188;2023-03-14T05:24:48;6.43;;;1.58;;
32864;SDS011;19219;44.500;11.188;2023-03-14T05:27:14;2.28;;;1.10;;
32864;SDS011;19219;44.500;11.188;2023-03-14T05:29:39;9.20;;;1.92;;
32864;SDS011;19219;44.500;11.188;2023-03-14T05:32:05;10.95;;;2.10;;
32864;SDS011;19219;44.500;11.188;2023-03-14T05:34:31;17.40;;;2.60;;
32864;SDS011;19219;44.500;11.188;2023-03-14T05:36:56;27.60;;;4.13;;
32864;SDS011;19219;44.500;11.188;2023-03-14T05:39:22;13.30;;;2.28;;
32864;SDS011;19219;44.500;11.188;2023-03-14T05:41:48;4.68;;;1.70;;
32864;SDS011;19219;44.500;11.188;2023-03-14T05:44:13;7.07;;;1.80;;
32864;SDS011;19219;44.500;11.188;2023-03-14T05:46:39;8.13;;;3.50;;
32864;SDS011;19219;44.500;11.188;2023-03-14T05:49:05;11.70;;;3.03;;
32864;SDS011;19219;44.500;11.188;2023-03-14T05:51:30;9.27;;;2.47;;
32864;SDS011;19219;44.500;11.188;2023-03-14T05:53:56;6.45;;;1.70;;
32864;SDS011;19219;44.500;11.188;2023-03-14T05:56:22;7.85;;;1.92;;
32864;SDS011;19219;44.500;11.188;2023-03-14T05:58:47;7.88;;;2.42;;
32864;SDS011;19219;44.500;11.188;2023-03-14T06:01:13;5.47;;;1.70;;
32864;SDS011;19219;44.500;11.188;2023-03-14T06:03:38;4.85;;;1.85;;
32864;SDS011;19219;44.500;11.188;2023-03-14T06:06:04;10.75;;;2.25;;
32864;SDS011;19219;44.500;11.188;2023-03-14T06:08:30;9.13;;;2.67;;
32864;SDS011;19219;44.500;11.188;2023-03-14T06:10:56;9.00;;;1.70;;
32864;SDS011;19219;44.500;11.188;2023-03-14T06:13:23;7.13;;;1.92;;
32864;SDS011;19219;44.500;11.188;2023-03-14T06:15:48;7.55;;;2.40;;
32864;SDS011;19219;44.500;11.188;2023-03-14T06:18:14;6.80;;;2.17;;
32864;SDS011;19219;44.500;11.188;2023-03-14T06:20:40;8.63;;;1.98;;
32864;SDS011;19219;44.500;11.188;2023-03-14T06:23:06;5.15;;;1.70;;
32864;SDS011;19219;44.500;11.188;2023-03-14T06:25:33;4.88;;;2.88;;
32864;SDS011;19219;44.500;11.188;2023-03-14T06:28:00;7.68;;;2.35;;
32864;SDS011;19219;44.500;11.188;2023-03-14T06:30:26;8.50;;;2.67;;
32864;SDS011;19219;44.500;11.188;2023-03-14T06:32:51;9.52;;;2.15;;
32864;SDS011;19219;44.500;11.188;2023-03-14T06:35:17;10.35;;;1.88;;
32864;SDS011;19219;44.500;11.188;2023-03-14T06:37:43;9.50;;;2.10;;
32864;SDS011;19219;44.500;11.188;2023-03-14T06:40:09;4.78;;;1.67;;
32864;SDS011;19219;44.500;11.188;2023-03-14T06:42:37;5.40;;;2.15;;
32864;SDS011;19219;44.500;11.188;2023-03-14T06:45:03;6.85;;;2.70;;
32864;SDS011;19219;44.500;11.188;2023-03-14T06:47:29;10.63;;;2.30;;
32864;SDS011;19219;44.500;11.188;2023-03-14T06:49:55;8.40;;;2.65;;
32864;SDS011;19219;44.500;11.188;2023-03-14T06:52:20;5.05;;;1.90;;
32864;SDS011;19219;44.500;11.188;2023-03-14T06:54:46;8.85;;;2.40;;
32864;SDS011;19219;44.500;11.188;2023-03-14T06:57:11;19.98;;;8.32;;
32864;SDS011;19219;44.500;11.188;2023-03-14T06:59:37;19.48;;;7.43;;
32864;SDS011;19219;44.500;11.188;2023-03-14T07:02:03;11.75;;;2.92;;
32864;SDS011;19219;44.500;11.188;2023-03-14T07:04:28;9.93;;;2.03;;
32864;SDS011;19219;44.500;11.188;2023-03-14T07:06:54;8.55;;;2.15;;
32864;SDS011;19219;44.500;11.188;2023-03-14T07:09:20;8.80;;;2.88;;
32864;SDS011;19219;44.500;11.188;2023-03-14T07:11:45;9.63;;;2.28;;
32864;SDS011;19219;44.500;11.188;2023-03-14T07:14:11;5.28;;;1.77;;
32864;SDS011;19219;44.500;11.188;2023-03-14T07:16:37;5.95;;;2.47;;
32864;SDS011;19219;44.500;11.188;2023-03-14T07:19:03;6.68;;;2.03;;
32864;SDS011;19219;44.500;11.188;2023-03-14T07:21:28;5.97;;;1.70;;
32864;SDS011;19219;44.500;11.188;2023-03-14T07:23:54;8.90;;;1.63;;
32864;SDS011;19219;44.500;11.188;2023-03-14T07:26:20;5.95;;;2.47;;
32864;SDS011;19219;44.500;11.188;2023-03-14T07:28:46;6.05;;;1.70;;
32864;SDS011;19219;44.500;11.188;2023-03-14T07:31:11;5.53;;;1.50;;
32864;SDS011;19219;44.500;11.188;2023-03-14T07:33:37;2.53;;;1.45;;
32864;SDS011;19219;44.500;11.188;2023-03-14T07:36:03;10.65;;;2.45;;
32864;SDS011;19219;44.500;11.188;2023-03-14T07:38:29;8.68;;;2.22;;
32864;SDS011;19219;44.500;11.188;2023-03-14T07:40:58;5.93;;;1.92;;
32864;SDS011;19219;44.500;11.188;2023-03-14T07:43:25;10.60;;;1.85;;
32864;SDS011;19219;44.500;11.188;2023-03-14T07:45:51;3.45;;;1.65;;
32864;SDS011;19219;44.500;11.188;2023-03-14T07:48:16;9.02;;;2.53;;
32864;SDS011;19219;44.500;11.188;2023-03-14T07:50:42;4.30;;;2.08;;
32864;SDS011;19219;44.500;11.188;2023-03-14T07:53:08;3.33;;;1.50;;
32864;SDS011;19219;44.500;11.188;2023-03-14T07:55:34;4.80;;;1.33;;
32864;SDS011;19219;44.500;11.188;2023-03-14T07:58:00;4.65;;;2.33;;
32864;SDS011;19219;44.500;11.188;2023-03-14T08:00:26;6.07;;;1.80;;
32864;SDS011;19219;44.500;11.188;2023-03-14T08:02:52;3.88;;;1.60;;
32864;SDS011;19219;44.500;11.188;2023-03-14T08:05:18;5.53;;;1.92;;
32864;SDS011;19219;44.500;11.188;2023-03-14T08:07:43;5.90;;;2.45;;
32864;SDS011;19219;44.500;11.188;2023-03-14T08:10:09;19.90;;;11.50;;
32864;SDS011;19219;44.500;11.188;2023-03-14T08:12:35;7.68;;;2.08;;
32864;SDS011;19219;44.500;11.188;2023-03-14T08:15:01;6.05;;;2.08;;
32864;SDS011;19219;44.500;11.188;2023-03-14T08:17:27;4.75;;;1.55;;
32864;SDS011;19219;44.500;11.188;2023-03-14T08:19:53;12.40;;;3.75;;
32864;SDS011;19219;44.500;11.188;2023-03-14T08:22:18;4.63;;;1.67;;
32864;SDS011;19219;44.500;11.188;2023-03-14T08:24:44;2.60;;;1.42;;
32864;SDS011;19219;44.500;11.188;2023-03-14T08:27:09;2.88;;;1.88;;
32864;SDS011;19219;44.500;11.188;2023-03-14T08:29:35;9.95;;;1.83;;
32864;SDS011;19219;44.500;11.188;2023-03-14T08:32:01;3.92;;;1.88;;
32864;SDS011;19219;44.500;11.188;2023-03-14T08:34:27;4.63;;;1.73;;
32864;SDS011;19219;44.500;11.188;2023-03-14T08:36:52;4.00;;;1.67;;
32864;SDS011;19219;44.500;11.188;2023-03-14T08:39:20;3.90;;;2.00;;
32864;SDS011;19219;44.500;11.188;2023-03-14T08:41:46;4.55;;;1.73;;
32864;SDS011;19219;44.500;11.188;2023-03-14T08:44:12;5.57;;;2.17;;
32864;SDS011;19219;44.500;11.188;2023-03-14T08:46:38;7.80;;;2.65;;
32864;SDS011;19219;44.500;11.188;2023-03-14T08:49:03;3.05;;;1.80;;
32864;SDS011;19219;44.500;11.188;2023-03-14T08:51:29;4.95;;;1.83;;
32864;SDS011;19219;44.500;11.188;2023-03-14T08:53:55;5.55;;;2.00;;
32864;SDS011;19219;44.500;11.188;2023-03-14T08:56:20;4.13;;;1.67;;
32864;SDS011;19219;44.500;11.188;2023-03-14T08:58:46;10.30;;;3.70;;
32864;SDS011;19219;44.500;11.188;2023-03-14T09:01:12;9.32;;;2.20;;
32864;SDS011;19219;44.500;11.188;2023-03-14T09:03:38;8.32;;;2.17;;
32864;SDS011;19219;44.500;11.188;2023-03-14T09:06:04;6.88;;;2.80;;
32864;SDS011;19219;44.500;11.188;2023-03-14T09:08:34;4.07;;;2.13;;
32864;SDS011;19219;44.500;11.188;2023-03-14T09:11:00;8.52;;;3.13;;
32864;SDS011;19219;44.500;11.188;2023-03-14T09:13:26;5.78;;;2.25;;
32864;SDS011;19219;44.500;11.188;2023-03-14T09:15:53;7.55;;;2.08;;
32864;SDS011;19219;44.500;11.188;2023-03-14T09:18:21;5.65;;;2.22;;
32864;SDS011;19219;44.500;11.188;2023-03-14T09:20:47;5.22;;;2.15;;
32864;SDS011;19219;44.500;11.188;2023-03-14T09:23:13;7.68;;;2.25;;
32864;SDS011;19219;44.500;11.188;2023-03-14T09:25:39;4.28;;;1.60;;
32864;SDS011;19219;44.500;11.188;2023-03-14T09:28:05;7.47;;;2.38;;
32864;SDS011;19219;44.500;11.188;2023-03-14T09:30:31;8.52;;;1.90;;
32864;SDS011;19219;44.500;11.188;2023-03-14T09:32:57;3.63;;;1.20;;
32864;SDS011;19219;44.500;11.188;2023-03-14T09:35:23;5.13;;;1.98;;
32864;SDS011;19219;44.500;11.188;2023-03-14T09:37:50;11.80;;;6.03;;
32864;SDS011;19219;44.500;11.188;2023-03-14T09:40:16;3.10;;;1.38;;
32864;SDS011;19219;44.500;11.188;2023-03-14T09:42:45;5.47;;;1.30;;
32864;SDS011;19219;44.500;11.188;2023-03-14T09:45:23;6.63;;;1.50;;
32864;SDS011;19219;44.500;11.188;2023-03-14T09:47:53;3.20;;;1.60;;
32864;SDS011;19219;44.500;11.188;2023-03-14T09:50:20;3.38;;;1.45;;
32864;SDS011;19219;44.500;11.188;2023-03-14T09:52:48;3.28;;;1.50;;
32864;SDS011;19219;44.500;11.188;2023-03-14T09:55:17;2.50;;;1.33;;
32864;SDS011;19219;44.500;11.188;2023-03-14T09:57:46;1.63;;;1.45;;
32864;SDS011;19219;44.500;11.188;2023-03-14T10:02:43;2.78;;;1.13;;
32864;SDS011;19219;44.500;11.188;2023-03-14T10:05:17;3.30;;;1.98;;
32864;SDS011;19219;44.500;11.188;2023-03-14T10:07:44;2.22;;;1.30;;
32864;SDS011;19219;44.500;11.188;2023-03-14T10:10:13;3.08;;;1.75;;
32864;SDS011;19219;44.500;11.188;2023-03-14T10:12:46;4.53;;;0.98;;
32864;SDS011;19219;44.500;11.188;2023-03-14T10:15:22;3.58;;;0.75;;
32864;SDS011;19219;44.500;11.188;2023-03-14T10:17:58;1.60;;;1.17;;
32864;SDS011;19219;44.500;11.188;2023-03-14T10:22:59;1.60;;;0.88;;
32864;SDS011;19219;44.500;11.188;2023-03-14T10:25:46;3.83;;;1.05;;
32864;SDS011;19219;44.500;11.188;2023-03-14T10:28:25;1.48;;;0.73;;
32864;SDS011;19219;44.500;11.188;2023-03-14T10:30:51;1.25;;;0.57;;
32864;SDS011;19219;44.500;11.188;2023-03-14T10:33:20;3.22;;;0.75;;
32864;SDS011;19219;44.500;11.188;2023-03-14T10:35:46;2.92;;;0.90;;
32864;SDS011;19219;44.500;11.188;2023-03-14T10:38:22;1.08;;;0.77;;
32864;SDS011;19219;44.500;11.188;2023-03-14T10:40:51;1.55;;;0.90;;
32864;SDS011;19219;44.500;11.188;2023-03-14T10:43:19;1.52;;;0.77;;
32864;SDS011;19219;44.500;11.188;2023-03-14T10:45:56;1.23;;;0.73;;
32864;SDS011;19219;44.500;11.188;2023-03-14T10:48:36;1.88;;;0.65;;
32864;SDS011;19219;44.500;11.188;2023-03-14T10:53:50;2.97;;;1.45;;
32864;SDS011;19219;44.500;11.188;2023-03-14T10:56:22;1.67;;;1.50;;
32864;SDS011;19219;44.500;11.188;2023-03-14T10:58:49;0.70;;;0.63;;
32864;SDS011;19219;44.500;11.188;2023-03-14T11:03:52;1.08;;;0.98;;
32864;SDS011;19219;44.500;11.188;2023-03-14T11:06:29;0.70;;;0.70;;
32864;SDS011;19219;44.500;11.188;2023-03-14T11:09:05;1.95;;;0.65;;
32864;SDS011;19219;44.500;11.188;2023-03-14T11:11:38;0.98;;;0.73;;
32864;SDS011;19219;44.500;11.188;2023-03-14T11:22:47;9.52;;;4.38;;
32864;SDS011;19219;44.500;11.188;2023-03-14T11:25:32;11.35;;;5.22;;
32864;SDS011;19219;44.500;11.188;2023-03-14T11:28:37;11.00;;;5.47;;
32864;SDS011;19219;44.500;11.188;2023-03-14T11:39:27;7.65;;;4.63;;
32864;SDS011;19219;44.500;11.188;2023-03-14T11:42:02;7.10;;;4.90;;
32864;SDS011;19219;44.500;11.188;2023-03-14T11:44:30;9.35;;;4.95;;
32864;SDS011;19219;44.500;11.188;2023-03-14T11:47:05;7.50;;;3.97;;
32864;SDS011;19219;44.500;11.188;2023-03-14T11:49:48;10.75;;;5.75;;
32864;SDS011;19219;44.500;11.188;2023-03-14T11:52:34;7.82;;;4.28;;
32864;SDS011;19219;44.500;11.188;2023-03-14T11:55:37;11.48;;;4.68;;
32864;SDS011;19219;44.500;11.188;2023-03-14T11:58:16;10.57;;;4.18;;
32864;SDS011;19219;44.500;11.188;2023-03-14T12:03:29;7.28;;;3.92;;
32864;SDS011;19219;44.500;11.188;2023-03-14T12:14:14;11.38;;;6.38;;
32864;SDS011;19219;44.500;11.188;2023-03-14T12:16:45;21.10;;;7.50;;
32864;SDS011;19219;44.500;11.188;2023-03-14T12:24:55;13.00;;;7.85;;
32864;SDS011;19219;44.500;11.188;2023-03-14T12:30:22;13.93;;;8.35;;
32864;SDS011;19219;44.500;11.188;2023-03-14T12:35:49;9.75;;;6.68;;
32864;SDS011;19219;44.500;11.188;2023-03-14T12:43:39;19.27;;;8.75;;
32864;SDS011;19219;44.500;11.188;2023-03-14T12:46:07;16.00;;;8.27;;
32864;SDS011;19219;44.500;11.188;2023-03-14T12:48:37;15.43;;;7.97;;
32864;SDS011;19219;44.500;11.188;2023-03-14T12:51:05;14.18;;;7.88;;
32864;SDS011;19219;44.500;11.188;2023-03-14T12:54:04;9.15;;;6.50;;
32864;SDS011;19219;44.500;11.188;2023-03-14T12:59:03;14.38;;;8.00;;
32864;SDS011;19219;44.500;11.188;2023-03-14T13:01:56;13.93;;;8.35;;
32864;SDS011;19219;44.500;11.188;2023-03-14T13:04:29;12.10;;;7.38;;
32864;SDS011;19219;44.500;11.188;2023-03-14T13:07:02;9.05;;;6.10;;
32864;SDS011;19219;44.500;11.188;2023-03-14T13:11:54;12.25;;;7.45;;
32864;SDS011;19219;44.500;11.188;2023-03-14T13:14:25;12.27;;;6.22;;
32864;SDS011;19219;44.500;11.188;2023-03-14T13:16:53;14.52;;;7.15;;
32864;SDS011;19219;44.500;11.188;2023-03-14T13:19:26;14.45;;;8.10;;
32864;SDS011;19219;44.500;11.188;2023-03-14T13:22:01;13.48;;;8.68;;
32864;SDS011;19219;44.500;11.188;2023-03-14T13:24:32;10.18;;;8.20;;
32864;SDS011;19219;44.500;11.188;2023-03-14T13:26:59;12.48;;;7.60;;
32864;SDS011;19219;44.500;11.188;2023-03-14T13:29:26;13.98;;;7.60;;
32864;SDS011;19219;44.500;11.188;2023-03-14T13:31:54;13.93;;;8.45;;
32864;SDS011;19219;44.500;11.188;2023-03-14T13:34:33;13.88;;;7.93;;
32864;SDS011;19219;44.500;11.188;2023-03-14T13:36:59;14.23;;;8.48;;
32864;SDS011;19219;44.500;11.188;2023-03-14T13:39:26;14.35;;;7.70;;
32864;SDS011;19219;44.500;11.188;2023-03-14T13:41:54;13.50;;;7.50;;
32864;SDS011;19219;44.500;11.188;2023-03-14T13:44:30;14.30;;;7.03;;
32864;SDS011;19219;44.500;11.188;2023-03-14T13:47:00;10.23;;;6.90;;
32864;SDS011;19219;44.500;11.188;2023-03-14T13:49:27;12.25;;;7.07;;
32864;SDS011;19219;44.500;11.188;2023-03-14T13:51:57;14.75;;;7.78;;
32864;SDS011;19219;44.500;11.188;2023-03-14T13:54:25;13.98;;;7.88;;
32864;SDS011;19219;44.500;11.188;2023-03-14T13:57:01;12.80;;;8.55;;
32864;SDS011;19219;44.500;11.188;2023-03-14T13:59:29;10.48;;;8.07;;
32864;SDS011;19219;44.500;11.188;2023-03-14T14:01:57;13.80;;;7.63;;
32864;SDS011;19219;44.500;11.188;2023-03-14T14:04:26;14.85;;;8.90;;
32864;SDS011;19219;44.500;11.188;2023-03-14T14:06:56;12.95;;;8.93;;
32864;SDS011;19219;44.500;11.188;2023-03-14T14:09:27;12.65;;;8.63;;
32864;SDS011;19219;44.500;11.188;2023-03-14T14:17:15;15.13;;;10.95;;
32864;SDS011;19219;44.500;11.188;2023-03-14T14:19:49;16.88;;;8.73;;
32864;SDS011;19219;44.500;11.188;2023-03-14T14:22:15;18.27;;;9.63;;
32864;SDS011;19219;44.500;11.188;2023-03-14T14:24:42;17.95;;;8.85;;
32864;SDS011;19219;44.500;11.188;2023-03-14T14:27:12;17.92;;;10.07;;
32864;SDS011;19219;44.500;11.188;2023-03-14T14:29:38;12.63;;;7.75;;
32864;SDS011;19219;44.500;11.188;2023-03-14T14:34:45;13.00;;;8.63;;
32864;SDS011;19219;44.500;11.188;2023-03-14T14:37:21;14.55;;;8.23;;
32864;SDS011;19219;44.500;11.188;2023-03-14T14:39:58;12.75;;;7.85;;
32864;SDS011;19219;44.500;11.188;2023-03-14T14:42:34;13.35;;;7.80;;
32864;SDS011;19219;44.500;11.188;2023-03-14T14:45:05;38.83;;;22.10;;
32864;SDS011;19219;44.500;11.188;2023-03-14T14:47:47;16.00;;;8.63;;
32864;SDS011;19219;44.500;11.188;2023-03-14T14:52:55;12.38;;;7.78;;
32864;SDS011;19219;44.500;11.188;2023-03-14T14:55:22;11.95;;;8.43;;
32864;SDS011;19219;44.500;11.188;2023-03-14T14:57:54;12.50;;;7.88;;
32864;SDS011;19219;44.500;11.188;2023-03-14T15:00:22;13.73;;;7.45;;
32864;SDS011;19219;44.500;11.188;2023-03-14T15:02:51;9.48;;;6.55;;
32864;SDS011;19219;44.500;11.188;2023-03-14T15:05:27;11.10;;;7.63;;
32864;SDS011;19219;44.500;11.188;2023-03-14T15:07:55;19.40;;;9.30;;
32864;SDS011;19219;44.500;11.188;2023-03-14T15:10:22;11.13;;;7.20;;
32864;SDS011;19219;44.500;11.188;2023-03-14T15:12:50;10.70;;;6.55;;
32864;SDS011;19219;44.500;11.188;2023-03-14T15:15:16;10.07;;;7.38;;
32864;SDS011;19219;44.500;11.188;2023-03-14T15:17:42;9.02;;;6.18;;
32864;SDS011;19219;44.500;11.188;2023-03-14T15:20:12;14.10;;;6.80;;
32864;SDS011;19219;44.500;11.188;2023-03-14T15:22:40;25.75;;;14.13;;
32864;SDS011;19219;44.500;11.188;2023-03-14T15:25:06;16.08;;;10.95;;
32864;SDS011;19219;44.500;11.188;2023-03-14T15:27:32;19.10;;;9.10;;
32864;SDS011;19219;44.500;11.188;2023-03-14T15:29:58;11.35;;;7.57;;
32864;SDS011;19219;44.500;11.188;2023-03-14T15:32:25;10.48;;;6.78;;
32864;SDS011;19219;44.500;11.188;2023-03-14T15:34:52;13.05;;;6.80;;
32864;SDS011;19219;44.500;11.188;2023-03-14T15:37:21;11.52;;;7.18;;
32864;SDS011;19219;44.500;11.188;2023-03-14T15:39:47;11.20;;;6.75;;
32864;SDS011;19219;44.500;11.188;2023-03-14T15:42:13;11.00;;;7.38;;
32864;SDS011;19219;44.500;11.188;2023-03-14T15:44:38;10.50;;;6.70;;
32864;SDS011;19219;44.500;11.188;2023-03-14T15:47:05;13.93;;;7.18;;
32864;SDS011;19219;44.500;11.188;2023-03-14T15:49:32;11.73;;;7.00;;
32864;SDS011;19219;44.500;11.188;2023-03-14T15:51:58;12.75;;;7.30;;